Time;durP1;ratioP1;P1;durP2;ratioP2;P2;SDS_P1;SDS_P2;PMS_P1;PMS_P2;Temp;Humidity;BMP_temperature;BMP_pressure;BME280_temperature;BME280_humidity;BME280_pressure;Samples;Min_cycle;Max_cycle;Signal;HPM_P1;HPM_P2
2022/01/30 00:00:33;;;;;;;1.83;1.00;;;;;;;;;;4993722;28;20133;-70
2022/01/30 00:03:02;;;;;;;1.73;0.98;;;;;;;;;;4993947;28;20420;-71
2022/01/30 00:05:30;;;;;;;1.77;1.00;;;;;;;;;;4994650;28;20101;-70
2022/01/30 00:07:58;;;;;;;2.00;0.88;;;;;;;;;;4993282;28;20084;-71
2022/01/30 00:10:25;;;;;;;2.03;1.00;;;;;;;;;;4993672;28;20495;-71
2022/01/30 00:12:55;;;;;;;1.92;0.90;;;;;;;;;;4992338;28;20050;-70
2022/01/30 00:15:34;;;;;;;1.63;0.90;;;;;;;;;;4993808;28;20242;-70
2022/01/30 00:18:12;;;;;;;1.50;0.82;;;;;;;;;;4992952;28;20054;-70
2022/01/30 00:20:43;;;;;;;1.95;1.15;;;;;;;;;;4993475;28;20094;-71
2022/01/30 00:23:14;;;;;;;2.35;0.80;;;;;;;;;;4993306;28;20050;-70
2022/01/30 00:25:48;;;;;;;;;;;;;;;;;;4994207;28;20397;-70
2022/01/30 00:28:17;;;;;;;1.95;0.90;;;;;;;;;;4993792;28;19944;-71
2022/01/30 00:30:44;;;;;;;1.90;0.90;;;;;;;;;;4993360;28;20062;-70
2022/01/30 00:33:13;;;;;;;1.90;1.00;;;;;;;;;;4993087;28;20434;-70
2022/01/30 00:35:40;;;;;;;1.85;1.10;;;;;;;;;;4993227;28;20056;-70
2022/01/30 00:38:11;;;;;;;2.15;0.95;;;;;;;;;;4992738;28;20146;-70
2022/01/30 00:40:38;;;;;;;1.67;1.00;;;;;;;;;;4993392;28;20142;-71
2022/01/30 00:43:08;;;;;;;3.15;1.35;;;;;;;;;;4992805;28;20051;-70
2022/01/30 00:45:35;;;;;;;4.70;1.10;;;;;;;;;;4991480;28;20053;-70
2022/01/30 00:48:02;;;;;;;3.22;1.30;;;;;;;;;;4992651;28;20089;-70
2022/01/30 00:50:31;;;;;;;1.65;0.90;;;;;;;;;;4993459;28;20050;-70
2022/01/30 00:52:59;;;;;;;2.63;1.00;;;;;;;;;;4994571;28;20050;-69
2022/01/30 00:55:27;;;;;;;2.08;1.10;;;;;;;;;;4994673;28;20074;-68
2022/01/30 00:57:54;;;;;;;1.38;0.80;;;;;;;;;;4994385;28;20496;-72
2022/01/30 01:00:22;;;;;;;1.90;1.05;;;;;;;;;;4994433;28;20050;-69
2022/01/30 01:02:49;;;;;;;2.25;1.10;;;;;;;;;;4994253;28;20054;-69
2022/01/30 01:05:16;;;;;;;2.20;1.08;;;;;;;;;;4994366;28;20051;-69
2022/01/30 01:07:47;;;;;;;1.98;1.00;;;;;;;;;;4994043;28;20054;-69
2022/01/30 01:10:24;;;;;;;2.05;1.10;;;;;;;;;;4994329;28;20050;-69
2022/01/30 01:13:04;;;;;;;2.22;0.80;;;;;;;;;;4994191;28;20066;-69
2022/01/30 01:24:03;;;;;;;2.22;1.10;;;;;;;;;;4988837;28;20065;-70
2022/01/30 01:26:30;;;;;;;1.30;0.90;;;;;;;;;;4993642;28;20058;-70
2022/01/30 01:28:57;;;;;;;1.23;0.70;;;;;;;;;;4993807;28;20420;-69
2022/01/30 01:31:24;;;;;;;2.05;1.08;;;;;;;;;;4994068;28;20050;-70
2022/01/30 01:36:33;;;;;;;1.48;0.88;;;;;;;;;;4992586;28;20089;-69
2022/01/30 01:39:02;;;;;;;2.08;0.95;;;;;;;;;;4993611;28;20104;-69
2022/01/30 01:41:31;;;;;;;1.27;0.80;;;;;;;;;;4993984;28;20050;-70
2022/01/30 01:43:58;;;;;;;1.73;0.85;;;;;;;;;;4993421;28;20081;-70
2022/01/30 01:46:29;;;;;;;2.13;1.08;;;;;;;;;;4993972;28;20502;-69
2022/01/30 01:48:56;;;;;;;2.10;0.90;;;;;;;;;;4993672;28;20089;-70
2022/01/30 01:51:25;;;;;;;2.20;1.10;;;;;;;;;;4993464;28;20058;-69
2022/01/30 01:53:57;;;;;;;1.83;1.00;;;;;;;;;;4993587;28;20082;-70
2022/01/30 01:56:26;;;;;;;1.98;0.90;;;;;;;;;;4993713;28;20046;-69
2022/01/30 01:58:53;;;;;;;2.00;0.90;;;;;;;;;;4993567;28;20405;-69
2022/01/30 02:01:20;;;;;;;1.65;0.80;;;;;;;;;;4993604;28;20046;-69
2022/01/30 02:03:48;;;;;;;1.80;0.82;;;;;;;;;;4993590;28;20090;-70
2022/01/30 02:06:18;;;;;;;2.35;1.00;;;;;;;;;;4993200;28;20133;-71
2022/01/30 02:08:49;;;;;;;2.28;0.93;;;;;;;;;;4993120;28;20046;-70
2022/01/30 02:11:28;;;;;;;1.05;0.80;;;;;;;;;;4993606;28;20515;-69
2022/01/30 02:25:06;;;;;;;1.60;0.90;;;;;;;;;;4993089;28;20057;-69
2022/01/30 02:27:35;;;;;;;2.38;1.13;;;;;;;;;;4993101;28;20526;-68
2022/01/30 02:30:08;;;;;;;1.17;0.68;;;;;;;;;;4993143;28;20443;-69
2022/01/30 02:32:35;;;;;;;2.30;1.02;;;;;;;;;;4992857;28;20085;-69
2022/01/30 02:35:02;;;;;;;1.90;0.90;;;;;;;;;;4992994;28;20586;-71
2022/01/30 02:37:30;;;;;;;2.35;1.13;;;;;;;;;;4991775;28;20129;-69
2022/01/30 02:39:57;;;;;;;1.77;1.10;;;;;;;;;;4992841;28;20088;-69
2022/01/30 02:42:29;;;;;;;1.80;0.90;;;;;;;;;;4991378;28;20085;-69
2022/01/30 02:44:59;;;;;;;2.90;1.42;;;;;;;;;;4992663;28;20487;-69
2022/01/30 02:47:39;;;;;;;1.90;1.00;;;;;;;;;;4992325;28;20145;-68
2022/01/30 02:50:17;;;;;;;2.25;0.85;;;;;;;;;;4992555;28;20046;-70
2022/01/30 02:52:55;;;;;;;2.53;1.05;;;;;;;;;;4992889;28;20062;-69
2022/01/30 02:55:22;;;;;;;2.50;1.00;;;;;;;;;;4993000;28;20054;-68
2022/01/30 02:57:50;;;;;;;2.60;1.05;;;;;;;;;;5004699;23;20125;-57
2022/01/30 03:00:17;;;;;;;1.55;0.90;;;;;;;;;;4993536;28;20060;-55
2022/01/30 03:02:44;;;;;;;1.73;0.95;;;;;;;;;;4993549;28;20137;-57
2022/01/30 03:05:11;;;;;;;1.67;0.93;;;;;;;;;;4993349;28;20510;-59
2022/01/30 03:07:38;;;;;;;1.83;0.90;;;;;;;;;;4993732;28;20141;-59
2022/01/30 03:10:07;;;;;;;1.77;1.02;;;;;;;;;;4994074;28;20049;-59
2022/01/30 03:12:34;;;;;;;1.40;0.90;;;;;;;;;;4993661;28;20054;-59
2022/01/30 03:15:02;;;;;;;1.63;0.90;;;;;;;;;;4993799;28;20112;-56
2022/01/30 03:17:29;;;;;;;2.10;1.05;;;;;;;;;;4993695;28;20061;-57
2022/01/30 03:19:56;;;;;;;1.45;0.85;;;;;;;;;;4993909;28;20046;-56
2022/01/30 03:22:24;;;;;;;1.98;1.00;;;;;;;;;;4993637;28;20054;-58
2022/01/30 03:24:51;;;;;;;0.90;0.60;;;;;;;;;;4992594;28;20435;-59
2022/01/30 03:27:19;;;;;;;1.95;1.00;;;;;;;;;;4991104;28;20490;-60
2022/01/30 03:29:51;;;;;;;2.10;1.08;;;;;;;;;;4992073;28;20141;-60
2022/01/30 03:32:18;;;;;;;2.10;0.93;;;;;;;;;;4991139;28;20487;-60
2022/01/30 03:34:45;;;;;;;1.55;0.77;;;;;;;;;;4991688;28;20054;-60
2022/01/30 03:37:12;;;;;;;1.52;1.00;;;;;;;;;;4991980;28;20050;-59
2022/01/30 03:39:39;;;;;;;1.85;0.90;;;;;;;;;;4992589;28;20047;-58
2022/01/30 03:42:07;;;;;;;1.55;0.98;;;;;;;;;;4992225;28;20125;-59
2022/01/30 03:44:36;;;;;;;1.52;0.70;;;;;;;;;;4992879;28;20483;-58
2022/01/30 03:47:03;;;;;;;1.65;1.00;;;;;;;;;;4992044;28;20050;-58
2022/01/30 03:49:31;;;;;;;2.65;1.08;;;;;;;;;;4996293;28;20415;-59
2022/01/30 03:51:58;;;;;;;1.38;0.70;;;;;;;;;;4997006;28;20419;-57
2022/01/30 03:54:25;;;;;;;1.42;0.70;;;;;;;;;;4996015;28;20141;-60
2022/01/30 03:56:52;;;;;;;1.65;0.90;;;;;;;;;;4994565;28;20519;-60
2022/01/30 03:59:19;;;;;;;1.45;0.77;;;;;;;;;;4995579;28;20557;-59
2022/01/30 04:01:47;;;;;;;1.50;0.90;;;;;;;;;;4995951;28;20050;-58
2022/01/30 04:04:14;;;;;;;4.45;1.00;;;;;;;;;;4994719;28;20050;-59
2022/01/30 04:06:42;;;;;;;1.85;0.93;;;;;;;;;;4994583;28;20056;-60
2022/01/30 04:09:09;;;;;;;1.38;0.80;;;;;;;;;;4995506;28;20050;-60
2022/01/30 04:11:36;;;;;;;1.58;0.70;;;;;;;;;;4995698;28;20046;-56
2022/01/30 04:14:05;;;;;;;1.73;1.00;;;;;;;;;;4995312;28;20070;-59
2022/01/30 04:16:32;;;;;;;1.52;0.80;;;;;;;;;;4994870;28;20061;-58
2022/01/30 04:19:01;;;;;;;2.72;0.90;;;;;;;;;;4996258;28;20047;-59
2022/01/30 04:21:28;;;;;;;1.50;1.00;;;;;;;;;;4996740;28;20073;-57
2022/01/30 04:23:55;;;;;;;1.38;0.73;;;;;;;;;;4995241;28;20555;-59
2022/01/30 04:26:22;;;;;;;1.55;1.00;;;;;;;;;;4997419;28;20058;-57
2022/01/30 04:28:50;;;;;;;2.55;0.80;;;;;;;;;;4996741;28;20515;-58
2022/01/30 04:31:17;;;;;;;1.73;0.95;;;;;;;;;;4996340;28;20054;-56
2022/01/30 04:33:45;;;;;;;1.88;1.15;;;;;;;;;;4996653;28;20050;-57
2022/01/30 04:36:19;;;;;;;2.63;1.17;;;;;;;;;;4996592;28;20141;-57
2022/01/30 04:38:57;;;;;;;1.98;0.95;;;;;;;;;;4996444;28;20459;-57
2022/01/30 04:41:48;;;;;;;1.92;1.00;;;;;;;;;;4996200;28;20065;-57
2022/01/30 04:52:49;;;;;;;3.15;1.20;;;;;;;;;;4996698;28;20065;-58
2022/01/30 04:56:13;;;;;;;2.28;1.20;;;;;;;;;;4995883;28;20506;-58
2022/01/30 04:58:35;;;;;;;2.15;1.20;;;;;;;;;;4995537;28;20046;-57
2022/01/30 05:01:10;;;;;;;2.70;1.30;;;;;;;;;;4995574;28;20058;-56
2022/01/30 05:03:51;;;;;;;2.65;1.40;;;;;;;;;;4996726;28;20503;-59
2022/01/30 05:06:29;;;;;;;;;;;;;;;;;;4995761;28;20053;-57
2022/01/30 05:08:58;;;;;;;3.28;1.55;;;;;;;;;;4996727;28;20277;-57
2022/01/30 05:11:25;;;;;;;3.20;1.42;;;;;;;;;;4995802;28;20046;-56
2022/01/30 05:13:52;;;;;;;2.45;1.30;;;;;;;;;;4995820;28;20046;-55
2022/01/30 05:16:22;;;;;;;2.22;1.40;;;;;;;;;;4995498;28;20559;-55
2022/01/30 05:18:50;;;;;;;3.08;1.70;;;;;;;;;;4995504;28;20069;-56
2022/01/30 05:21:19;;;;;;;2.72;1.50;;;;;;;;;;4995394;28;20052;-59
2022/01/30 05:23:46;;;;;;;2.58;1.45;;;;;;;;;;4995333;28;20046;-59
2022/01/30 05:26:16;;;;;;;2.58;1.48;;;;;;;;;;4994974;28;20062;-59
2022/01/30 05:28:44;;;;;;;4.38;1.52;;;;;;;;;;4995423;28;20054;-58
2022/01/30 05:31:11;;;;;;;3.55;1.75;;;;;;;;;;4995371;28;20491;-58
2022/01/30 05:33:39;;;;;;;2.63;1.63;;;;;;;;;;4995288;28;20046;-58
2022/01/30 05:36:08;;;;;;;2.75;1.55;;;;;;;;;;4994896;28;20054;-59
2022/01/30 05:38:36;;;;;;;2.53;1.40;;;;;;;;;;4994905;28;20050;-56
2022/01/30 05:41:03;;;;;;;2.45;1.60;;;;;;;;;;4995201;28;20063;-57
2022/01/30 05:43:33;;;;;;;2.63;1.35;;;;;;;;;;4994633;28;20133;-55
2022/01/30 05:46:10;;;;;;;3.30;1.30;;;;;;;;;;4994685;28;20050;-56
2022/01/30 05:48:38;;;;;;;2.95;1.20;;;;;;;;;;4995202;28;20145;-59
2022/01/30 05:51:05;;;;;;;2.20;1.10;;;;;;;;;;4995544;28;20060;-58
2022/01/30 05:53:32;;;;;;;2.53;1.30;;;;;;;;;;4995583;28;20068;-58
2022/01/30 05:55:59;;;;;;;2.60;1.20;;;;;;;;;;4995652;28;20058;-57
2022/01/30 05:58:26;;;;;;;2.88;1.55;;;;;;;;;;4994939;28;20130;-58
2022/01/30 06:00:54;;;;;;;3.70;2.00;;;;;;;;;;4994864;28;20435;-58
2022/01/30 06:03:21;;;;;;;3.75;1.60;;;;;;;;;;4994638;28;20523;-58
2022/01/30 06:05:49;;;;;;;4.38;2.30;;;;;;;;;;4995085;28;20054;-56
2022/01/30 06:08:38;;;;;;;3.33;2.00;;;;;;;;;;4995495;28;20050;-57
2022/01/30 06:11:03;;;;;;;5.25;3.03;;;;;;;;;;4995079;28;20492;-59
2022/01/30 06:13:30;;;;;;;3.92;2.15;;;;;;;;;;4995043;28;20057;-59
2022/01/30 06:15:59;;;;;;;4.30;2.30;;;;;;;;;;4995079;28;20072;-55
2022/01/30 06:18:26;;;;;;;3.78;2.20;;;;;;;;;;4994382;28;20129;-57
2022/01/30 06:20:53;;;;;;;5.13;2.00;;;;;;;;;;4994843;28;20052;-56
2022/01/30 06:23:22;;;;;;;3.92;2.17;;;;;;;;;;4995011;28;20081;-58
2022/01/30 06:25:49;;;;;;;3.60;1.92;;;;;;;;;;4994910;28;20050;-57
2022/01/30 06:28:16;;;;;;;4.40;2.15;;;;;;;;;;4994320;28;20077;-57
2022/01/30 06:30:43;;;;;;;3.90;1.80;;;;;;;;;;4994247;28;20414;-59
2022/01/30 06:33:12;;;;;;;3.38;1.90;;;;;;;;;;4994017;28;20046;-58
2022/01/30 06:35:39;;;;;;;3.53;1.65;;;;;;;;;;4994347;28;20057;-58
2022/01/30 06:38:06;;;;;;;3.70;1.80;;;;;;;;;;4994274;28;20140;-58
2022/01/30 06:40:33;;;;;;;3.65;1.80;;;;;;;;;;4994781;28;20050;-59
2022/01/30 06:43:00;;;;;;;2.67;1.60;;;;;;;;;;4994550;28;20125;-57
2022/01/30 06:45:27;;;;;;;4.18;2.10;;;;;;;;;;4994606;28;20490;-56
2022/01/30 06:47:54;;;;;;;3.35;1.88;;;;;;;;;;4994156;28;20093;-58
2022/01/30 06:50:24;;;;;;;3.55;1.70;;;;;;;;;;4994206;28;20057;-57
2022/01/30 06:52:51;;;;;;;4.45;2.53;;;;;;;;;;4994386;28;20054;-56
2022/01/30 06:55:17;;;;;;;4.78;2.22;;;;;;;;;;4994700;28;20486;-57
2022/01/30 06:57:45;;;;;;;3.78;2.08;;;;;;;;;;4994110;28;20054;-55
2022/01/30 07:00:13;;;;;;;5.10;2.08;;;;;;;;;;4994027;28;20471;-56
2022/01/30 07:02:40;;;;;;;4.75;2.40;;;;;;;;;;4994178;28;20050;-58
2022/01/30 07:05:08;;;;;;;4.25;2.40;;;;;;;;;;4993792;28;20050;-55
2022/01/30 07:07:36;;;;;;;4.55;2.40;;;;;;;;;;4994223;28;20059;-57
2022/01/30 07:10:07;;;;;;;5.78;2.40;;;;;;;;;;4994701;28;20137;-59
2022/01/30 07:12:34;;;;;;;4.28;2.03;;;;;;;;;;4994547;28;20511;-57
2022/01/30 07:15:01;;;;;;;2.95;1.63;;;;;;;;;;4994633;28;20054;-58
2022/01/30 07:17:28;;;;;;;4.60;1.85;;;;;;;;;;4994008;28;20053;-57
2022/01/30 07:19:55;;;;;;;4.18;1.85;;;;;;;;;;4994424;28;20088;-59
2022/01/30 07:22:22;;;;;;;3.10;1.70;;;;;;;;;;4994890;28;20241;-57
2022/01/30 07:24:50;;;;;;;3.10;1.50;;;;;;;;;;4997498;28;20050;-56
2022/01/30 07:27:17;;;;;;;5.00;2.25;;;;;;;;;;4998506;28;20046;-55
2022/01/30 07:29:44;;;;;;;3.97;1.60;;;;;;;;;;4996864;28;20574;-59
2022/01/30 07:32:11;;;;;;;3.90;2.00;;;;;;;;;;4996409;28;20050;-58
2022/01/30 07:34:38;;;;;;;4.63;1.70;;;;;;;;;;4996073;28;20506;-59
2022/01/30 07:37:06;;;;;;;2.42;1.08;;;;;;;;;;4995770;28;20049;-59
2022/01/30 07:39:33;;;;;;;2.67;1.42;;;;;;;;;;4995928;28;20070;-59
2022/01/30 07:42:01;;;;;;;3.65;1.30;;;;;;;;;;4996098;28;20050;-57
2022/01/30 07:44:28;;;;;;;5.20;1.50;;;;;;;;;;4996055;28;20050;-59
2022/01/30 07:46:55;;;;;;;3.03;1.20;;;;;;;;;;4995671;28;20513;-60
2022/01/30 07:49:22;;;;;;;3.30;1.25;;;;;;;;;;4995821;28;20054;-58
2022/01/30 07:51:49;;;;;;;2.35;1.05;;;;;;;;;;4995798;28;20043;-57
2022/01/30 07:54:16;;;;;;;3.28;1.35;;;;;;;;;;4995676;28;20046;-56
2022/01/30 07:56:43;;;;;;;3.22;1.40;;;;;;;;;;4995565;28;20514;-59
2022/01/30 07:59:12;;;;;;;4.10;1.30;;;;;;;;;;4995585;28;20526;-60
2022/01/30 08:01:39;;;;;;;3.53;1.45;;;;;;;;;;4996002;28;20050;-60
2022/01/30 08:04:07;;;;;;;5.88;1.55;;;;;;;;;;4995737;28;20055;-59
2022/01/30 08:06:34;;;;;;;3.00;1.42;;;;;;;;;;4995643;28;20269;-60
2022/01/30 08:09:01;;;;;;;5.90;1.77;;;;;;;;;;4995561;28;20129;-60
2022/01/30 08:11:28;;;;;;;4.07;2.05;;;;;;;;;;4995824;28;20050;-60
2022/01/30 08:13:55;;;;;;;4.15;1.52;;;;;;;;;;4995607;28;20050;-60
2022/01/30 08:16:26;;;;;;;5.97;1.50;;;;;;;;;;4995384;28;20060;-59
2022/01/30 08:18:53;;;;;;;3.50;1.92;;;;;;;;;;4995880;28;20085;-60
2022/01/30 08:21:20;;;;;;;5.70;1.73;;;;;;;;;;4995179;28;20434;-59
2022/01/30 08:23:48;;;;;;;11.32;2.28;;;;;;;;;;4995384;28;20050;-58
2022/01/30 08:26:15;;;;;;;6.00;1.90;;;;;;;;;;4995695;28;20415;-60
2022/01/30 08:28:42;;;;;;;5.38;1.80;;;;;;;;;;4995152;28;20050;-60
2022/01/30 08:31:09;;;;;;;4.15;1.70;;;;;;;;;;4995237;28;20558;-59
2022/01/30 08:33:37;;;;;;;4.55;1.88;;;;;;;;;;4994452;28;20050;-58
2022/01/30 08:36:04;;;;;;;5.40;1.40;;;;;;;;;;4994977;28;20158;-59
2022/01/30 08:38:31;;;;;;;6.70;1.80;;;;;;;;;;4995000;28;20100;-60
2022/01/30 08:40:59;;;;;;;2.63;1.02;;;;;;;;;;4995041;28;20050;-55
2022/01/30 08:43:26;;;;;;;5.18;1.38;;;;;;;;;;4994970;28;20050;-59
2022/01/30 08:45:54;;;;;;;5.65;1.40;;;;;;;;;;4995080;28;20050;-60
2022/01/30 08:48:21;;;;;;;2.30;1.10;;;;;;;;;;4994771;28;20050;-59
2022/01/30 08:50:50;;;;;;;3.30;1.30;;;;;;;;;;4994757;28;20093;-61
2022/01/30 08:53:17;;;;;;;2.63;1.08;;;;;;;;;;4995135;28;20463;-61
2022/01/30 08:55:45;;;;;;;4.07;1.30;;;;;;;;;;4994820;28;20440;-60
2022/01/30 08:58:13;;;;;;;2.83;1.20;;;;;;;;;;4994795;28;20487;-62
2022/01/30 09:00:42;;;;;;;3.60;1.35;;;;;;;;;;5014837;23;20042;-78
2022/01/30 09:03:09;;;;;;;3.15;1.38;;;;;;;;;;5003638;28;20050;-78
2022/01/30 09:05:36;;;;;;;3.70;1.50;;;;;;;;;;5002293;28;20049;-78
2022/01/30 09:08:07;;;;;;;4.30;1.60;;;;;;;;;;5002026;28;20046;-78
2022/01/30 09:10:34;;;;;;;4.43;1.60;;;;;;;;;;5001801;28;20050;-79
2022/01/30 09:13:01;;;;;;;5.20;1.90;;;;;;;;;;5006170;28;20050;-80
2022/01/30 09:15:28;;;;;;;6.05;1.88;;;;;;;;;;5005515;28;20101;-81
2022/01/30 09:17:57;;;;;;;6.32;1.65;;;;;;;;;;5003301;28;20050;-79
2022/01/30 09:20:24;;;;;;;3.40;1.70;;;;;;;;;;5000242;28;20085;-78
2022/01/30 09:22:53;;;;;;;4.15;1.50;;;;;;;;;;5001000;28;20047;-78
2022/01/30 09:25:22;;;;;;;6.35;1.70;;;;;;;;;;5003289;28;20046;-78
2022/01/30 09:27:48;;;;;;;5.38;1.90;;;;;;;;;;4996438;28;20054;-76
2022/01/30 09:30:16;;;;;;;9.73;2.72;;;;;;;;;;5002513;28;20053;-77
2022/01/30 09:32:43;;;;;;;6.75;1.67;;;;;;;;;;4999058;28;20137;-78
2022/01/30 09:35:10;;;;;;;5.80;1.70;;;;;;;;;;5003718;28;20055;-84
2022/01/30 09:37:37;;;;;;;7.53;2.45;;;;;;;;;;5007975;28;20054;-77
2022/01/30 09:40:06;;;;;;;5.10;2.00;;;;;;;;;;5011744;28;20058;-79
2022/01/30 09:42:34;;;;;;;8.45;2.30;;;;;;;;;;4999752;28;20050;-76
2022/01/30 09:45:04;;;;;;;9.88;3.42;;;;;;;;;;4993008;28;20653;-76
2022/01/30 09:47:32;;;;;;;7.70;3.15;;;;;;;;;;4995351;28;20042;-76
2022/01/30 09:50:00;;;;;;;6.18;2.42;;;;;;;;;;4995793;28;20058;-77
2022/01/30 09:52:27;;;;;;;7.65;2.08;;;;;;;;;;4994513;28;20050;-76
2022/01/30 09:54:54;;;;;;;7.82;2.35;;;;;;;;;;4993648;28;20046;-77
2022/01/30 09:57:21;;;;;;;8.00;2.60;;;;;;;;;;4994510;28;20464;-80
2022/01/30 09:59:49;;;;;;;6.18;2.20;;;;;;;;;;4995873;28;20077;-76
2022/01/30 10:02:16;;;;;;;6.28;1.70;;;;;;;;;;4993111;28;20761;-76
2022/01/30 10:04:43;;;;;;;5.57;2.30;;;;;;;;;;4992746;28;20703;-75
2022/01/30 10:07:14;;;;;;;8.15;2.22;;;;;;;;;;4993562;28;20575;-79
2022/01/30 10:09:46;;;;;;;8.18;2.60;;;;;;;;;;4995050;28;20110;-78
2022/01/30 10:12:16;;;;;;;5.65;2.00;;;;;;;;;;4994725;28;20528;-78
2022/01/30 10:14:59;;;;;;;6.32;2.40;;;;;;;;;;5000258;28;20046;-78
2022/01/30 10:17:28;;;;;;;7.32;2.10;;;;;;;;;;4993328;28;20050;-77
2022/01/30 10:20:04;;;;;;;7.43;2.70;;;;;;;;;;4993644;28;20050;-78
2022/01/30 10:22:31;;;;;;;6.45;2.17;;;;;;;;;;4994936;28;20053;-77
2022/01/30 10:24:58;;;;;;;5.78;2.03;;;;;;;;;;4995265;28;20055;-77
2022/01/30 10:27:26;;;;;;;7.07;2.25;;;;;;;;;;4994114;28;20078;-76
2022/01/30 10:30:00;;;;;;;3.83;1.85;;;;;;;;;;4993932;28;20050;-77
2022/01/30 10:32:27;;;;;;;5.20;2.40;;;;;;;;;;4992925;28;20069;-77
2022/01/30 10:34:59;;;;;;;5.72;2.10;;;;;;;;;;4993257;28;20133;-77
2022/01/30 10:37:26;;;;;;;7.82;2.47;;;;;;;;;;4994442;28;20058;-78
2022/01/30 10:39:57;;;;;;;7.80;2.42;;;;;;;;;;4994182;28;20054;-78
2022/01/30 10:42:42;;;;;;;7.38;2.45;;;;;;;;;;4993399;28;20054;-77
2022/01/30 10:45:13;;;;;;;6.97;2.55;;;;;;;;;;4993020;28;20064;-78
2022/01/30 10:47:42;;;;;;;6.93;2.40;;;;;;;;;;4992128;28;20057;-78
2022/01/30 10:50:15;;;;;;;7.85;2.63;;;;;;;;;;4992232;28;20528;-77
2022/01/30 10:52:53;;;;;;;9.57;2.40;;;;;;;;;;4991722;28;20050;-77
2022/01/30 10:55:33;;;;;;;7.78;2.55;;;;;;;;;;4993988;28;20050;-76
2022/01/30 10:58:01;;;;;;;8.45;2.28;;;;;;;;;;4995568;28;20051;-77
2022/01/30 11:00:45;;;;;;;8.25;2.88;;;;;;;;;;4997042;28;20054;-77
2022/01/30 11:03:37;;;;;;;8.20;2.30;;;;;;;;;;4992308;28;20049;-77
2022/01/30 11:06:07;;;;;;;8.23;2.30;;;;;;;;;;4992695;28;20464;-78
2022/01/30 11:08:35;;;;;;;6.37;2.30;;;;;;;;;;4994388;28;20100;-77
2022/01/30 11:11:12;;;;;;;7.40;2.38;;;;;;;;;;4994279;28;20319;-77
2022/01/30 11:14:02;;;;;;;7.35;2.90;;;;;;;;;;4992891;28;20050;-76
2022/01/30 11:19:27;;;;;;;11.20;2.45;;;;;;;;;;4953276;29;20203;-76
2022/01/30 11:21:59;;;;;;;7.13;2.30;;;;;;;;;;4984886;28;20191;-77
2022/01/30 11:24:26;;;;;;;8.70;3.28;;;;;;;;;;4993929;28;20047;-77
2022/01/30 11:26:53;;;;;;;11.50;2.60;;;;;;;;;;4994760;28;20057;-77
2022/01/30 11:29:21;;;;;;;6.32;2.30;;;;;;;;;;4995530;28;20053;-76
2022/01/30 11:31:50;;;;;;;6.97;2.60;;;;;;;;;;4994180;28;20117;-76
2022/01/30 11:34:18;;;;;;;8.30;2.50;;;;;;;;;;4993532;28;20637;-77
2022/01/30 11:36:47;;;;;;;9.27;2.75;;;;;;;;;;4992635;28;20112;-78
2022/01/30 11:39:16;;;;;;;8.40;2.80;;;;;;;;;;4996263;28;20109;-77
2022/01/30 11:42:03;;;;;;;5.53;2.72;;;;;;;;;;4997870;28;20054;-77
2022/01/30 11:44:30;;;;;;;8.73;2.83;;;;;;;;;;4993492;28;20058;-78
2022/01/30 11:47:21;;;;;;;4.90;2.40;;;;;;;;;;4992566;28;20050;-77
2022/01/30 11:49:52;;;;;;;7.43;2.80;;;;;;;;;;4992366;28;20493;-78
2022/01/30 11:52:20;;;;;;;7.60;2.95;;;;;;;;;;4992619;28;20046;-78
2022/01/30 11:54:49;;;;;;;7.88;3.00;;;;;;;;;;4992991;28;20050;-77
2022/01/30 11:57:45;;;;;;;6.75;2.60;;;;;;;;;;4991823;28;20141;-77
2022/01/30 12:00:35;;;;;;;8.13;2.72;;;;;;;;;;4991755;28;20061;-77
2022/01/30 12:03:32;;;;;;;11.00;2.72;;;;;;;;;;4992774;28;20050;-78
2022/01/30 12:06:29;;;;;;;9.15;2.88;;;;;;;;;;4957959;28;20054;-77
2022/01/30 12:08:59;;;;;;;9.05;2.63;;;;;;;;;;4994176;28;20051;-77
2022/01/30 12:11:59;;;;;;;6.57;2.28;;;;;;;;;;4996330;28;20066;-78
2022/01/30 12:14:56;;;;;;;6.07;2.55;;;;;;;;;;4963502;28;20457;-77
2022/01/30 12:17:50;;;;;;;6.50;2.08;;;;;;;;;;4999883;28;20053;-77
2022/01/30 12:20:19;;;;;;;9.52;2.30;;;;;;;;;;4996480;28;20137;-77
2022/01/30 12:22:46;;;;;;;6.15;2.13;;;;;;;;;;4994242;28;20058;-76
2022/01/30 12:25:31;;;;;;;6.78;2.20;;;;;;;;;;4993732;28;20101;-77
2022/01/30 12:28:00;;;;;;;5.78;2.72;;;;;;;;;;4996663;28;20078;-77
2022/01/30 12:30:32;;;;;;;6.15;2.10;;;;;;;;;;4997907;28;20186;-77
2022/01/30 12:33:00;;;;;;;5.90;2.25;;;;;;;;;;5005151;28;20048;-78
2022/01/30 12:35:29;;;;;;;6.25;2.20;;;;;;;;;;5016932;28;20046;-78
2022/01/30 12:37:55;;;;;;;7.03;2.58;;;;;;;;;;5013861;28;20052;-78
2022/01/30 12:40:23;;;;;;;5.57;2.30;;;;;;;;;;5014616;28;20052;-77
2022/01/30 12:42:50;;;;;;;8.70;2.15;;;;;;;;;;5013964;28;20049;-79
2022/01/30 12:45:18;;;;;;;6.38;1.92;;;;;;;;;;5018469;28;20049;-78
2022/01/30 12:47:49;;;;;;;6.03;2.70;;;;;;;;;;5016128;28;20096;-77
2022/01/30 12:50:18;;;;;;;5.53;2.20;;;;;;;;;;5004579;28;20468;-77
2022/01/30 12:52:50;;;;;;;4.97;1.90;;;;;;;;;;4993707;28;20104;-77
2022/01/30 12:55:18;;;;;;;6.53;2.10;;;;;;;;;;4998679;28;20074;-77
2022/01/30 12:57:47;;;;;;;5.80;2.40;;;;;;;;;;4996189;28;20116;-77
2022/01/30 13:00:19;;;;;;;8.02;2.35;;;;;;;;;;5003977;28;20054;-77
2022/01/30 13:02:56;;;;;;;6.32;2.40;;;;;;;;;;5014748;28;20872;-76
2022/01/30 13:05:24;;;;;;;8.02;2.78;;;;;;;;;;5017868;28;20038;-77
2022/01/30 13:07:57;;;;;;;7.18;2.72;;;;;;;;;;4998634;28;20482;-79
2022/01/30 13:10:25;;;;;;;6.13;2.78;;;;;;;;;;4995118;28;20050;-77
2022/01/30 13:12:54;;;;;;;6.80;2.80;;;;;;;;;;4994261;28;20066;-77
2022/01/30 13:15:23;;;;;;;9.48;2.55;;;;;;;;;;4994081;28;20054;-78
2022/01/30 13:17:51;;;;;;;7.45;2.05;;;;;;;;;;4982270;28;20051;-78
2022/01/30 13:20:23;;;;;;;7.55;2.08;;;;;;;;;;4976056;28;20055;-79
2022/01/30 13:22:51;;;;;;;8.68;2.45;;;;;;;;;;4975301;28;20138;-77
2022/01/30 13:25:22;;;;;;;6.53;2.50;;;;;;;;;;4975055;28;20066;-77
2022/01/30 13:27:50;;;;;;;6.57;2.10;;;;;;;;;;4975516;28;20053;-77
2022/01/30 13:30:21;;;;;;;6.68;2.58;;;;;;;;;;4975885;28;20054;-78
2022/01/30 13:32:48;;;;;;;8.35;2.72;;;;;;;;;;4974526;28;20086;-77
2022/01/30 13:35:17;;;;;;;7.20;2.60;;;;;;;;;;4975656;28;20046;-77
2022/01/30 13:37:44;;;;;;;6.43;3.15;;;;;;;;;;4974759;28;20532;-78
2022/01/30 13:40:20;;;;;;;6.93;1.92;;;;;;;;;;4974483;28;20512;-78
2022/01/30 13:42:53;;;;;;;10.45;2.88;;;;;;;;;;4975005;28;20465;-77
2022/01/30 13:48:11;;;;;;;5.20;2.17;;;;;;;;;;4941339;28;20054;-78
2022/01/30 13:50:41;;;;;;;8.18;2.20;;;;;;;;;;4975441;28;20051;-77
2022/01/30 13:53:10;;;;;;;6.05;2.15;;;;;;;;;;4974843;28;20058;-78
2022/01/30 13:55:38;;;;;;;5.72;2.30;;;;;;;;;;4973388;28;20522;-77
2022/01/30 13:58:08;;;;;;;8.05;2.50;;;;;;;;;;4974171;28;20073;-76
2022/01/30 14:00:38;;;;;;;8.25;2.75;;;;;;;;;;4977441;28;20046;-77
2022/01/30 14:03:08;;;;;;;6.82;2.00;;;;;;;;;;4976164;28;20064;-77
2022/01/30 14:05:39;;;;;;;7.55;2.50;;;;;;;;;;4975588;28;20721;-76
2022/01/30 14:08:12;;;;;;;;;;;;;;;;;;4972953;28;20550;-76
2022/01/30 14:10:40;;;;;;;5.28;1.92;;;;;;;;;;4972714;28;19922;-76
2022/01/30 14:13:14;;;;;;;5.15;1.70;;;;;;;;;;4982602;28;20043;-77
2022/01/30 14:15:41;;;;;;;7.00;2.03;;;;;;;;;;5012038;28;20487;-77
2022/01/30 14:18:12;;;;;;;7.65;2.53;;;;;;;;;;5011660;28;20050;-78
2022/01/30 14:20:40;;;;;;;7.35;2.50;;;;;;;;;;5013296;28;20053;-79
2022/01/30 14:23:11;;;;;;;8.13;3.05;;;;;;;;;;5014469;28;20052;-79
2022/01/30 14:25:40;;;;;;;;;;;;;;;;;;5012018;28;20096;-77
2022/01/30 14:28:28;;;;;;;7.03;2.35;;;;;;;;;;5014654;28;20013;-76
2022/01/30 14:30:57;;;;;;;7.05;3.08;;;;;;;;;;5017875;28;20046;-77
2022/01/30 14:33:24;;;;;;;6.28;2.28;;;;;;;;;;4993169;28;20428;-78
2022/01/30 14:35:53;;;;;;;5.45;2.13;;;;;;;;;;4993087;28;20053;-78
2022/01/30 14:38:20;;;;;;;4.90;2.47;;;;;;;;;;4992940;28;20050;-79
2022/01/30 14:40:48;;;;;;;6.18;2.70;;;;;;;;;;4996307;28;20054;-78
2022/01/30 14:43:15;;;;;;;8.52;2.20;;;;;;;;;;5000910;28;20460;-78
2022/01/30 14:45:46;;;;;;;6.20;2.60;;;;;;;;;;4999550;28;20053;-77
2022/01/30 14:48:13;;;;;;;;;;;;;;;;;;5002216;28;20046;-78
2022/01/30 14:50:41;;;;;;;7.07;2.38;;;;;;;;;;5011871;28;19922;-77
2022/01/30 14:53:09;;;;;;;5.90;2.22;;;;;;;;;;5008798;28;20129;-78
2022/01/30 14:55:36;;;;;;;5.50;2.13;;;;;;;;;;5000874;28;20042;-78
2022/01/30 14:58:03;;;;;;;6.57;1.80;;;;;;;;;;4999216;28;20058;-77
2022/01/30 15:00:30;;;;;;;7.00;2.30;;;;;;;;;;5013892;23;20074;-77
2022/01/30 15:02:58;;;;;;;6.50;1.92;;;;;;;;;;4962198;28;20058;-77
2022/01/30 15:05:25;;;;;;;5.25;2.15;;;;;;;;;;4971715;28;20054;-77
2022/01/30 15:07:52;;;;;;;7.30;3.00;;;;;;;;;;4971649;28;20066;-76
2022/01/30 15:10:19;;;;;;;6.88;2.40;;;;;;;;;;4971600;28;20429;-77
2022/01/30 15:12:46;;;;;;;7.68;2.80;;;;;;;;;;4971658;28;20058;-78
2022/01/30 15:15:14;;;;;;;9.02;3.03;;;;;;;;;;4972038;28;20050;-76
2022/01/30 15:17:41;;;;;;;10.15;3.40;;;;;;;;;;4972899;28;20050;-78
2022/01/30 15:20:12;;;;;;;10.52;3.38;;;;;;;;;;4972017;28;20133;-76
2022/01/30 15:22:40;;;;;;;7.13;2.55;;;;;;;;;;4972651;28;20078;-76
2022/01/30 15:25:08;;;;;;;7.63;2.83;;;;;;;;;;4971813;28;20089;-77
2022/01/30 15:27:36;;;;;;;9.20;2.95;;;;;;;;;;4971500;28;20054;-78
2022/01/30 15:30:04;;;;;;;9.43;2.85;;;;;;;;;;4973230;28;20113;-77
2022/01/30 15:32:31;;;;;;;8.07;3.22;;;;;;;;;;4972190;28;20105;-77
2022/01/30 15:34:59;;;;;;;8.00;2.83;;;;;;;;;;4972145;28;20051;-77